Fort Towson, Oklahoma
Current Conditions -  °F | °C
As of 9:55 AM on Saturday 25 Oct 2014 (Local Time) from KHHW Reporting Station
Clear Clear  
Wind Chill: 70°   Ceiling: Unl
Heat Index: 70°   Visibility: 10mi
Dew Point: 60°   Wind: 3mph
Humidity: 72%   Direction: 210°SSW
Pressure: 30.14"   Gusts: NA
Location:  34.02°N, 95.27°W
Report Text: KHHW 251455Z AUTO 21003KT 10SM CLR 21/16 A3014 RMK AO2 T02090156
Loading
Personal Weather Stations






























Interactive Weather Map
Tropical Storm Tracking
New forecast layout! Learn more

10-Day Weather Forecast

Advertisements
Track Severe Weather on mobile